sensor_id;sensor_type;location;lat;lon;timestamp;pressure;altitude;pressure_sealevel;temperature;humidity
61026;BME280;46911;32.650;-16.902;2023-12-20T00:00:46;103136.72;;;15.79;61.37
61026;BME280;46911;32.650;-16.902;2023-12-20T00:02:47;103125.72;;;15.66;61.62
61026;BME280;46911;32.650;-16.902;2023-12-20T00:04:53;103150.44;;;15.74;61.81
61026;BME280;46911;32.650;-16.902;2023-12-20T00:06:56;103146.78;;;15.76;61.53
61026;BME280;46911;32.650;-16.902;2023-12-20T00:08:56;103131.66;;;15.73;61.63
61026;BME280;46911;32.650;-16.902;2023-12-20T00:11:00;103154.44;;;15.85;62.22
61026;BME280;46911;32.650;-16.902;2023-12-20T00:13:01;103151.72;;;15.85;62.87
61026;BME280;46911;32.650;-16.902;2023-12-20T00:15:02;103149.50;;;15.93;63.02
61026;BME280;46911;32.650;-16.902;2023-12-20T00:17:06;103141.19;;;15.80;63.00
61026;BME280;46911;32.650;-16.902;2023-12-20T00:19:09;103139.06;;;15.87;62.97
61026;BME280;46911;32.650;-16.902;2023-12-20T00:21:10;103144.13;;;15.93;63.03
61026;BME280;46911;32.650;-16.902;2023-12-20T00:23:13;103145.00;;;15.94;63.27
61026;BME280;46911;32.650;-16.902;2023-12-20T00:25:14;103134.47;;;15.89;63.42
61026;BME280;46911;32.650;-16.902;2023-12-20T00:27:18;103134.22;;;15.94;63.51
61026;BME280;46911;32.650;-16.902;2023-12-20T00:29:19;103133.44;;;15.92;63.24
61026;BME280;46911;32.650;-16.902;2023-12-20T00:31:22;103132.25;;;15.97;62.96
61026;BME280;46911;32.650;-16.902;2023-12-20T00:33:23;103103.56;;;15.79;62.93
61026;BME280;46911;32.650;-16.902;2023-12-20T00:35:24;103134.69;;;16.02;62.21
61026;BME280;46911;32.650;-16.902;2023-12-20T00:37:27;103123.53;;;15.92;62.24
61026;BME280;46911;32.650;-16.902;2023-12-20T00:39:28;103122.91;;;15.87;62.85
61026;BME280;46911;32.650;-16.902;2023-12-20T00:41:31;103136.88;;;15.76;63.52
61026;BME280;46911;32.650;-16.902;2023-12-20T00:43:32;103130.38;;;15.63;64.33
61026;BME280;46911;32.650;-16.902;2023-12-20T00:45:36;103128.25;;;15.52;65.27
61026;BME280;46911;32.650;-16.902;2023-12-20T00:47:40;103128.88;;;15.39;65.51
61026;BME280;46911;32.650;-16.902;2023-12-20T00:49:41;103135.91;;;15.42;65.67
61026;BME280;46911;32.650;-16.902;2023-12-20T00:51:45;103128.31;;;15.33;65.85
61026;BME280;46911;32.650;-16.902;2023-12-20T00:53:53;103133.03;;;15.28;65.89
61026;BME280;46911;32.650;-16.902;2023-12-20T00:55:55;103119.31;;;15.15;66.19
61026;BME280;46911;32.650;-16.902;2023-12-20T00:57:56;103126.38;;;15.17;66.24
61026;BME280;46911;32.650;-16.902;2023-12-20T00:59:59;103129.34;;;15.11;66.01
61026;BME280;46911;32.650;-16.902;2023-12-20T01:02:03;103127.03;;;15.03;66.28
61026;BME280;46911;32.650;-16.902;2023-12-20T01:04:06;103125.56;;;14.96;66.85
61026;BME280;46911;32.650;-16.902;2023-12-20T01:06:09;103117.84;;;14.90;67.22
61026;BME280;46911;32.650;-16.902;2023-12-20T01:08:10;103129.53;;;14.89;67.27
61026;BME280;46911;32.650;-16.902;2023-12-20T01:10:11;103129.69;;;14.86;67.05
61026;BME280;46911;32.650;-16.902;2023-12-20T01:12:17;103122.06;;;14.77;67.03
61026;BME280;46911;32.650;-16.902;2023-12-20T01:14:20;103105.34;;;14.70;67.17
61026;BME280;46911;32.650;-16.902;2023-12-20T01:16:21;103116.88;;;14.72;66.77
61026;BME280;46911;32.650;-16.902;2023-12-20T01:18:24;103122.84;;;14.79;66.73
61026;BME280;46911;32.650;-16.902;2023-12-20T01:20:25;103114.19;;;14.91;66.15
61026;BME280;46911;32.650;-16.902;2023-12-20T01:22:29;103124.88;;;14.93;66.15
61026;BME280;46911;32.650;-16.902;2023-12-20T01:24:30;103132.28;;;14.87;66.37
61026;BME280;46911;32.650;-16.902;2023-12-20T01:26:31;103123.91;;;14.94;65.78
61026;BME280;46911;32.650;-16.902;2023-12-20T01:28:35;103122.97;;;14.95;65.05
61026;BME280;46911;32.650;-16.902;2023-12-20T01:30:36;103138.44;;;14.89;65.54
61026;BME280;46911;32.650;-16.902;2023-12-20T01:32:42;103115.00;;;14.74;65.57
61026;BME280;46911;32.650;-16.902;2023-12-20T01:34:46;103122.41;;;14.69;65.52
61026;BME280;46911;32.650;-16.902;2023-12-20T01:36:47;103131.31;;;14.69;66.14
61026;BME280;46911;32.650;-16.902;2023-12-20T01:38:47;103131.72;;;14.60;66.35
61026;BME280;46911;32.650;-16.902;2023-12-20T01:40:51;103123.97;;;14.54;66.85
61026;BME280;46911;32.650;-16.902;2023-12-20T01:43:00;103121.69;;;14.45;67.38
61026;BME280;46911;32.650;-16.902;2023-12-20T01:45:01;103127.34;;;14.38;67.47
61026;BME280;46911;32.650;-16.902;2023-12-20T01:47:03;103114.34;;;14.29;68.13
61026;BME280;46911;32.650;-16.902;2023-12-20T01:49:04;103115.34;;;14.27;68.52
61026;BME280;46911;32.650;-16.902;2023-12-20T01:51:05;103112.88;;;14.22;69.02
61026;BME280;46911;32.650;-16.902;2023-12-20T01:53:07;103118.03;;;14.27;69.42
61026;BME280;46911;32.650;-16.902;2023-12-20T01:55:14;103120.03;;;14.21;69.19
61026;BME280;46911;32.650;-16.902;2023-12-20T01:57:16;103106.78;;;14.18;69.42
61026;BME280;46911;32.650;-16.902;2023-12-20T01:59:20;103106.03;;;14.15;69.50
61026;BME280;46911;32.650;-16.902;2023-12-20T02:01:27;103094.09;;;14.01;69.89
61026;BME280;46911;32.650;-16.902;2023-12-20T02:03:28;103116.31;;;14.05;70.35
61026;BME280;46911;32.650;-16.902;2023-12-20T02:05:33;103094.09;;;14.01;70.90
61026;BME280;46911;32.650;-16.902;2023-12-20T02:07:34;103103.16;;;13.99;70.79
61026;BME280;46911;32.650;-16.902;2023-12-20T02:09:35;103096.53;;;13.87;71.55
61026;BME280;46911;32.650;-16.902;2023-12-20T02:11:38;103101.91;;;13.87;71.33
61026;BME280;46911;32.650;-16.902;2023-12-20T02:13:42;103103.03;;;13.81;71.50
61026;BME280;46911;32.650;-16.902;2023-12-20T02:15:43;103107.13;;;13.90;72.11
61026;BME280;46911;32.650;-16.902;2023-12-20T02:17:45;103106.53;;;13.83;71.99
61026;BME280;46911;32.650;-16.902;2023-12-20T02:19:47;103111.97;;;13.82;71.87
61026;BME280;46911;32.650;-16.902;2023-12-20T02:21:48;103116.50;;;13.80;72.23
61026;BME280;46911;32.650;-16.902;2023-12-20T02:23:51;103115.56;;;13.81;72.23
61026;BME280;46911;32.650;-16.902;2023-12-20T02:25:55;103121.81;;;13.81;72.20
61026;BME280;46911;32.650;-16.902;2023-12-20T02:27:56;103112.91;;;13.81;72.15
61026;BME280;46911;32.650;-16.902;2023-12-20T02:29:59;103126.16;;;13.84;72.37
61026;BME280;46911;32.650;-16.902;2023-12-20T02:32:02;103122.63;;;13.83;71.84
61026;BME280;46911;32.650;-16.902;2023-12-20T02:34:06;103125.31;;;13.83;71.67
61026;BME280;46911;32.650;-16.902;2023-12-20T02:36:06;103120.09;;;13.80;71.52
61026;BME280;46911;32.650;-16.902;2023-12-20T02:38:10;103125.31;;;13.83;71.55
61026;BME280;46911;32.650;-16.902;2023-12-20T02:40:13;103125.31;;;13.83;71.62
61026;BME280;46911;32.650;-16.902;2023-12-20T02:42:14;103119.72;;;13.88;71.02
61026;BME280;46911;32.650;-16.902;2023-12-20T02:44:17;103127.66;;;13.91;71.01
61026;BME280;46911;32.650;-16.902;2023-12-20T02:46:18;103127.25;;;14.00;70.67
61026;BME280;46911;32.650;-16.902;2023-12-20T02:48:22;103128.97;;;14.01;70.48
61026;BME280;46911;32.650;-16.902;2023-12-20T02:50:25;103129.06;;;14.00;70.52
61026;BME280;46911;32.650;-16.902;2023-12-20T02:52:31;103131.88;;;13.97;70.76
61026;BME280;46911;32.650;-16.902;2023-12-20T02:54:32;103124.00;;;13.92;70.62
61026;BME280;46911;32.650;-16.902;2023-12-20T02:56:33;103135.72;;;13.91;70.46
61026;BME280;46911;32.650;-16.902;2023-12-20T02:58:34;103131.47;;;13.85;70.72
61026;BME280;46911;32.650;-16.902;2023-12-20T03:00:35;103123.03;;;13.74;70.86
61026;BME280;46911;32.650;-16.902;2023-12-20T03:02:36;103110.78;;;13.67;70.71
61026;BME280;46911;32.650;-16.902;2023-12-20T03:04:43;103142.53;;;13.78;71.05
61026;BME280;46911;32.650;-16.902;2023-12-20T03:06:47;103137.28;;;13.75;71.09
61026;BME280;46911;32.650;-16.902;2023-12-20T03:08:48;103142.72;;;13.73;71.26
61026;BME280;46911;32.650;-16.902;2023-12-20T03:10:51;103138.25;;;13.73;71.38
61026;BME280;46911;32.650;-16.902;2023-12-20T03:12:56;103127.63;;;13.70;71.40
61026;BME280;46911;32.650;-16.902;2023-12-20T03:14:57;103138.13;;;13.77;71.47
61026;BME280;46911;32.650;-16.902;2023-12-20T03:16:58;103132.88;;;13.73;71.09
61026;BME280;46911;32.650;-16.902;2023-12-20T03:18:59;103140.94;;;13.73;71.34
61026;BME280;46911;32.650;-16.902;2023-12-20T03:21:05;103130.59;;;13.64;71.78
61026;BME280;46911;32.650;-16.902;2023-12-20T03:23:06;103120.91;;;13.60;71.89
61026;BME280;46911;32.650;-16.902;2023-12-20T03:25:07;103142.13;;;13.66;72.10
61026;BME280;46911;32.650;-16.902;2023-12-20T03:27:08;103132.38;;;13.64;72.03
61026;BME280;46911;32.650;-16.902;2023-12-20T03:29:12;103139.50;;;13.65;72.03
61026;BME280;46911;32.650;-16.902;2023-12-20T03:31:18;103140.25;;;13.68;72.12
61026;BME280;46911;32.650;-16.902;2023-12-20T03:33:18;103143.63;;;13.73;72.23
61026;BME280;46911;32.650;-16.902;2023-12-20T03:35:19;103140.97;;;13.72;71.89
61026;BME280;46911;32.650;-16.902;2023-12-20T03:37:21;103135.81;;;13.67;71.90
61026;BME280;46911;32.650;-16.902;2023-12-20T03:39:22;103145.41;;;13.73;72.20
61026;BME280;46911;32.650;-16.902;2023-12-20T03:41:26;103153.31;;;13.76;72.04
61026;BME280;46911;32.650;-16.902;2023-12-20T03:43:27;103144.53;;;13.72;72.24
61026;BME280;46911;32.650;-16.902;2023-12-20T03:45:30;103147.22;;;13.72;72.33
61026;BME280;46911;32.650;-16.902;2023-12-20T03:47:34;103152.69;;;13.69;72.58
61026;BME280;46911;32.650;-16.902;2023-12-20T03:49:35;103149.22;;;13.67;72.64
61026;BME280;46911;32.650;-16.902;2023-12-20T03:51:37;103144.78;;;13.66;72.70
61026;BME280;46911;32.650;-16.902;2023-12-20T03:53:38;103162.03;;;13.81;72.56
61026;BME280;46911;32.650;-16.902;2023-12-20T03:55:46;103144.34;;;13.77;72.51
61026;BME280;46911;32.650;-16.902;2023-12-20T03:57:47;103163.78;;;13.82;72.48
61026;BME280;46911;32.650;-16.902;2023-12-20T03:59:50;103163.03;;;13.79;72.70
61026;BME280;46911;32.650;-16.902;2023-12-20T04:01:54;103151.69;;;13.72;72.87
61026;BME280;46911;32.650;-16.902;2023-12-20T04:03:57;103164.94;;;13.77;72.82
61026;BME280;46911;32.650;-16.902;2023-12-20T04:06:02;103178.88;;;13.85;72.34
61026;BME280;46911;32.650;-16.902;2023-12-20T04:08:04;103163.19;;;13.76;72.17
61026;BME280;46911;32.650;-16.902;2023-12-20T04:10:05;103177.97;;;13.86;72.20
61026;BME280;46911;32.650;-16.902;2023-12-20T04:12:06;103176.06;;;13.88;72.43
61026;BME280;46911;32.650;-16.902;2023-12-20T04:14:07;103178.75;;;13.88;72.51
61026;BME280;46911;32.650;-16.902;2023-12-20T04:16:10;103180.44;;;13.90;72.49
61026;BME280;46911;32.650;-16.902;2023-12-20T04:18:11;103172.31;;;13.92;72.42
61026;BME280;46911;32.650;-16.902;2023-12-20T04:20:12;103169.59;;;13.94;72.63
61026;BME280;46911;32.650;-16.902;2023-12-20T04:22:13;103166.91;;;13.94;71.96
61026;BME280;46911;32.650;-16.902;2023-12-20T04:24:14;103162.25;;;13.97;72.04
61026;BME280;46911;32.650;-16.902;2023-12-20T04:26:15;103177.19;;;14.04;72.06
61026;BME280;46911;32.650;-16.902;2023-12-20T04:28:16;103168.13;;;14.07;72.10
61026;BME280;46911;32.650;-16.902;2023-12-20T04:30:19;103175.56;;;14.00;72.28
61026;BME280;46911;32.650;-16.902;2023-12-20T04:32:23;103168.44;;;13.99;72.21
61026;BME280;46911;32.650;-16.902;2023-12-20T04:34:24;103166.63;;;14.00;72.08
61026;BME280;46911;32.650;-16.902;2023-12-20T04:36:28;103170.19;;;14.00;72.15
61026;BME280;46911;32.650;-16.902;2023-12-20T04:38:30;103165.47;;;14.05;72.28
61026;BME280;46911;32.650;-16.902;2023-12-20T04:40:31;103168.22;;;14.04;72.50
61026;BME280;46911;32.650;-16.902;2023-12-20T04:42:34;103160.09;;;14.05;72.44
61026;BME280;46911;32.650;-16.902;2023-12-20T04:44:38;103160.72;;;14.12;72.39
61026;BME280;46911;32.650;-16.902;2023-12-20T04:46:42;103154.75;;;14.05;72.48
61026;BME280;46911;32.650;-16.902;2023-12-20T04:48:44;103159.72;;;14.15;72.64
61026;BME280;46911;32.650;-16.902;2023-12-20T04:50:44;103159.31;;;14.24;71.57
61026;BME280;46911;32.650;-16.902;2023-12-20T04:52:45;103140.31;;;14.29;70.19
61026;BME280;46911;32.650;-16.902;2023-12-20T04:54:48;103149.22;;;14.50;69.44
61026;BME280;46911;32.650;-16.902;2023-12-20T04:56:52;103146.31;;;14.54;69.38
61026;BME280;46911;32.650;-16.902;2023-12-20T04:58:55;103141.22;;;14.69;68.64
61026;BME280;46911;32.650;-16.902;2023-12-20T05:00:56;103131.31;;;14.69;68.51
61026;BME280;46911;32.650;-16.902;2023-12-20T05:02:57;103130.38;;;14.70;68.37
61026;BME280;46911;32.650;-16.902;2023-12-20T05:05:00;103123.00;;;14.76;67.88
61026;BME280;46911;32.650;-16.902;2023-12-20T05:07:01;103109.16;;;14.64;68.09
61026;BME280;46911;32.650;-16.902;2023-12-20T05:09:02;103123.66;;;14.60;68.72
61026;BME280;46911;32.650;-16.902;2023-12-20T05:11:03;103122.41;;;14.48;69.56
61026;BME280;46911;32.650;-16.902;2023-12-20T05:13:05;103123.72;;;14.39;70.11
61026;BME280;46911;32.650;-16.902;2023-12-20T05:15:06;103125.06;;;14.29;70.82
61026;BME280;46911;32.650;-16.902;2023-12-20T05:17:12;103112.72;;;14.25;71.36
61026;BME280;46911;32.650;-16.902;2023-12-20T05:19:15;103120.94;;;14.22;71.42
61026;BME280;46911;32.650;-16.902;2023-12-20T05:21:16;103108.59;;;14.18;71.35
61026;BME280;46911;32.650;-16.902;2023-12-20T05:23:17;103108.38;;;14.22;71.54
61026;BME280;46911;32.650;-16.902;2023-12-20T05:25:18;103107.59;;;14.20;71.41
61026;BME280;46911;32.650;-16.902;2023-12-20T05:27:19;103090.22;;;14.09;71.59
61026;BME280;46911;32.650;-16.902;2023-12-20T05:29:22;103100.53;;;14.18;71.50
61026;BME280;46911;32.650;-16.902;2023-12-20T05:31:23;103096.59;;;14.06;71.80
61026;BME280;46911;32.650;-16.902;2023-12-20T05:33:27;103093.25;;;14.01;71.99
61026;BME280;46911;32.650;-16.902;2023-12-20T05:35:28;103101.47;;;13.96;72.24
61026;BME280;46911;32.650;-16.902;2023-12-20T05:37:28;103103.50;;;13.91;72.27
61026;BME280;46911;32.650;-16.902;2023-12-20T05:39:29;103100.22;;;13.84;72.35
61026;BME280;46911;32.650;-16.902;2023-12-20T05:41:33;103110.34;;;13.78;72.90
61026;BME280;46911;32.650;-16.902;2023-12-20T05:43:34;103107.06;;;13.71;73.38
61026;BME280;46911;32.650;-16.902;2023-12-20T05:45:37;103099.28;;;13.65;73.41
61026;BME280;46911;32.650;-16.902;2023-12-20T05:47:40;103087.13;;;13.56;73.44
61026;BME280;46911;32.650;-16.902;2023-12-20T05:49:44;103090.47;;;13.61;73.38
61026;BME280;46911;32.650;-16.902;2023-12-20T05:51:44;103081.75;;;13.56;73.51
61026;BME280;46911;32.650;-16.902;2023-12-20T05:53:48;103102.81;;;13.65;73.81
61026;BME280;46911;32.650;-16.902;2023-12-20T05:55:52;103102.03;;;13.63;73.67
61026;BME280;46911;32.650;-16.902;2023-12-20T05:57:53;103104.03;;;13.58;73.73
61026;BME280;46911;32.650;-16.902;2023-12-20T05:59:54;103107.84;;;13.52;73.71
61026;BME280;46911;32.650;-16.902;2023-12-20T06:01:55;103113.31;;;13.49;74.02
61026;BME280;46911;32.650;-16.902;2023-12-20T06:03:58;103123.25;;;13.47;74.24
61026;BME280;46911;32.650;-16.902;2023-12-20T06:06:06;103109.91;;;13.46;74.37
61026;BME280;46911;32.650;-16.902;2023-12-20T06:08:12;103120.72;;;13.44;74.27
61026;BME280;46911;32.650;-16.902;2023-12-20T06:10:13;103116.34;;;13.42;74.71
61026;BME280;46911;32.650;-16.902;2023-12-20T06:12:14;103125.03;;;13.47;74.68
61026;BME280;46911;32.650;-16.902;2023-12-20T06:14:15;103138.66;;;13.42;74.86
61026;BME280;46911;32.650;-16.902;2023-12-20T06:16:18;103139.66;;;13.39;74.89
61026;BME280;46911;32.650;-16.902;2023-12-20T06:18:22;103121.38;;;13.27;74.86
61026;BME280;46911;32.650;-16.902;2023-12-20T06:20:26;103109.03;;;13.23;74.95
61026;BME280;46911;32.650;-16.902;2023-12-20T06:22:29;103123.13;;;13.28;75.24
61026;BME280;46911;32.650;-16.902;2023-12-20T06:24:32;103098.78;;;13.11;75.19
61026;BME280;46911;32.650;-16.902;2023-12-20T06:26:36;103139.19;;;13.28;75.34
61026;BME280;46911;32.650;-16.902;2023-12-20T06:28:40;103135.81;;;13.23;75.35
61026;BME280;46911;32.650;-16.902;2023-12-20T06:30:41;103145.66;;;13.22;75.52
61026;BME280;46911;32.650;-16.902;2023-12-20T06:32:44;103152.06;;;13.18;75.79
61026;BME280;46911;32.650;-16.902;2023-12-20T06:34:49;103157.63;;;13.14;76.04
61026;BME280;46911;32.650;-16.902;2023-12-20T06:36:50;103151.44;;;13.12;76.39
61026;BME280;46911;32.650;-16.902;2023-12-20T06:38:51;103135.00;;;12.99;76.56
61026;BME280;46911;32.650;-16.902;2023-12-20T06:40:57;103159.75;;;13.05;76.67
61026;BME280;46911;32.650;-16.902;2023-12-20T06:42:59;103151.09;;;12.97;76.94
61026;BME280;46911;32.650;-16.902;2023-12-20T06:45:00;103160.78;;;13.01;76.89
61026;BME280;46911;32.650;-16.902;2023-12-20T06:47:03;103164.63;;;12.94;77.25
61026;BME280;46911;32.650;-16.902;2023-12-20T06:49:04;103177.91;;;12.97;77.55
61026;BME280;46911;32.650;-16.902;2023-12-20T06:51:12;103185.84;;;13.00;77.58
61026;BME280;46911;32.650;-16.902;2023-12-20T06:53:16;103192.81;;;13.04;77.43
61026;BME280;46911;32.650;-16.902;2023-12-20T06:55:19;103198.13;;;13.06;77.65
61026;BME280;46911;32.650;-16.902;2023-12-20T06:57:23;103188.53;;;13.00;77.61
61026;BME280;46911;32.650;-16.902;2023-12-20T06:59:26;103172.97;;;12.86;77.15
61026;BME280;46911;32.650;-16.902;2023-12-20T07:01:27;103208.91;;;13.04;77.56
61026;BME280;46911;32.650;-16.902;2023-12-20T07:03:32;103211.69;;;13.01;77.78
61026;BME280;46911;32.650;-16.902;2023-12-20T07:05:32;103214.47;;;12.98;77.76
61026;BME280;46911;32.650;-16.902;2023-12-20T07:07:34;103214.63;;;12.95;77.81
61026;BME280;46911;32.650;-16.902;2023-12-20T07:09:35;103216.53;;;12.92;78.05
61026;BME280;46911;32.650;-16.902;2023-12-20T07:11:36;103218.41;;;12.89;78.02
61026;BME280;46911;32.650;-16.902;2023-12-20T07:13:39;103224.50;;;12.93;77.92
61026;BME280;46911;32.650;-16.902;2023-12-20T07:15:40;103214.84;;;12.89;77.97
61026;BME280;46911;32.650;-16.902;2023-12-20T07:17:41;103229.78;;;12.95;77.66
61026;BME280;46911;32.650;-16.902;2023-12-20T07:19:45;103242.25;;;12.96;77.48
61026;BME280;46911;32.650;-16.902;2023-12-20T07:21:46;103223.78;;;12.88;77.23
61026;BME280;46911;32.650;-16.902;2023-12-20T07:23:47;103233.59;;;12.89;77.54
61026;BME280;46911;32.650;-16.902;2023-12-20T07:25:48;103220.44;;;12.83;77.44
61026;BME280;46911;32.650;-16.902;2023-12-20T07:27:49;103228.34;;;12.86;77.67
61026;BME280;46911;32.650;-16.902;2023-12-20T07:29:52;103245.06;;;12.93;77.67
61026;BME280;46911;32.650;-16.902;2023-12-20T07:31:54;103243.25;;;12.93;77.82
61026;BME280;46911;32.650;-16.902;2023-12-20T07:33:54;103234.56;;;12.86;77.70
61026;BME280;46911;32.650;-16.902;2023-12-20T07:35:55;103227.53;;;12.84;77.91
61026;BME280;46911;32.650;-16.902;2023-12-20T07:37:56;103247.75;;;12.93;77.95
61026;BME280;46911;32.650;-16.902;2023-12-20T07:40:02;103254.03;;;12.92;77.97
61026;BME280;46911;32.650;-16.902;2023-12-20T07:42:04;103263.03;;;12.89;77.50
61026;BME280;46911;32.650;-16.902;2023-12-20T07:44:08;103232.22;;;12.77;77.04
61026;BME280;46911;32.650;-16.902;2023-12-20T07:46:11;103254.09;;;12.90;76.75
61026;BME280;46911;32.650;-16.902;2023-12-20T07:48:12;103244.47;;;12.84;76.48
61026;BME280;46911;32.650;-16.902;2023-12-20T07:50:16;103260.28;;;12.92;75.97
61026;BME280;46911;32.650;-16.902;2023-12-20T07:52:18;103272.66;;;12.95;75.73
61026;BME280;46911;32.650;-16.902;2023-12-20T07:54:19;103262.00;;;12.93;75.65
61026;BME280;46911;32.650;-16.902;2023-12-20T07:56:20;103259.31;;;12.93;75.49
61026;BME280;46911;32.650;-16.902;2023-12-20T07:58:21;103242.66;;;12.85;75.68
61026;BME280;46911;32.650;-16.902;2023-12-20T08:00:27;103265.38;;;12.98;75.27
61026;BME280;46911;32.650;-16.902;2023-12-20T08:02:28;103257.22;;;13.01;74.98
61026;BME280;46911;32.650;-16.902;2023-12-20T08:04:32;103259.63;;;13.09;75.19
61026;BME280;46911;32.650;-16.902;2023-12-20T08:06:33;103256.78;;;13.14;74.86
61026;BME280;46911;32.650;-16.902;2023-12-20T08:08:34;103259.41;;;13.15;74.66
61026;BME280;46911;32.650;-16.902;2023-12-20T08:10:35;103257.50;;;13.19;74.85
61026;BME280;46911;32.650;-16.902;2023-12-20T08:12:36;103250.88;;;13.28;74.49
61026;BME280;46911;32.650;-16.902;2023-12-20T08:14:39;103243.72;;;13.28;74.63
61026;BME280;46911;32.650;-16.902;2023-12-20T08:16:43;103256.88;;;13.34;74.13
61026;BME280;46911;32.650;-16.902;2023-12-20T08:18:47;103246.28;;;13.31;74.39
61026;BME280;46911;32.650;-16.902;2023-12-20T08:20:51;103246.34;;;13.30;74.78
61026;BME280;46911;32.650;-16.902;2023-12-20T08:22:57;103246.22;;;13.33;74.53
61026;BME280;46911;32.650;-16.902;2023-12-20T08:25:01;103237.03;;;13.40;74.92
61026;BME280;46911;32.650;-16.902;2023-12-20T08:27:04;103239.75;;;13.38;75.00
61026;BME280;46911;32.650;-16.902;2023-12-20T08:29:05;103246.03;;;13.39;74.90
61026;BME280;46911;32.650;-16.902;2023-12-20T08:31:06;103253.16;;;13.38;75.07
61026;BME280;46911;32.650;-16.902;2023-12-20T08:33:10;103255.84;;;13.38;75.09
61026;BME280;46911;32.650;-16.902;2023-12-20T08:35:14;103244.47;;;13.32;75.05
61026;BME280;46911;32.650;-16.902;2023-12-20T08:37:14;103258.59;;;13.37;75.23
61026;BME280;46911;32.650;-16.902;2023-12-20T08:39:15;103265.72;;;13.38;75.33
61026;BME280;46911;32.650;-16.902;2023-12-20T08:41:17;103255.09;;;13.35;75.31
61026;BME280;46911;32.650;-16.902;2023-12-20T08:43:21;103267.34;;;13.42;75.52
61026;BME280;46911;32.650;-16.902;2023-12-20T08:45:22;103262.97;;;13.39;75.73
61026;BME280;46911;32.650;-16.902;2023-12-20T08:47:23;103284.06;;;13.49;75.71
61026;BME280;46911;32.650;-16.902;2023-12-20T08:49:24;103285.75;;;13.51;75.59
61026;BME280;46911;32.650;-16.902;2023-12-20T08:51:28;103283.69;;;13.58;75.49
61026;BME280;46911;32.650;-16.902;2023-12-20T08:53:32;103282.56;;;13.64;75.11
61026;BME280;46911;32.650;-16.902;2023-12-20T08:55:34;103274.34;;;13.68;75.05
61026;BME280;46911;32.650;-16.902;2023-12-20T08:57:35;103277.72;;;13.73;74.94
61026;BME280;46911;32.650;-16.902;2023-12-20T08:59:36;103278.59;;;13.74;74.63
61026;BME280;46911;32.650;-16.902;2023-12-20T09:01:37;103280.84;;;13.85;74.62
61026;BME280;46911;32.650;-16.902;2023-12-20T09:03:37;103288.81;;;13.86;74.39
61026;BME280;46911;32.650;-16.902;2023-12-20T09:05:41;103287.69;;;13.92;74.27
61026;BME280;46911;32.650;-16.902;2023-12-20T09:07:42;103298.03;;;14.01;74.07
61026;BME280;46911;32.650;-16.902;2023-12-20T09:09:49;103285.22;;;14.10;73.74
61026;BME280;46911;32.650;-16.902;2023-12-20T09:11:52;103289.28;;;14.18;73.50
61026;BME280;46911;32.650;-16.902;2023-12-20T09:13:56;103295.03;;;14.31;72.80
61026;BME280;46911;32.650;-16.902;2023-12-20T09:15:59;103282.28;;;14.36;72.73
61026;BME280;46911;32.650;-16.902;2023-12-20T09:18:01;103289.13;;;14.44;72.38
61026;BME280;46911;32.650;-16.902;2023-12-20T09:20:02;103280.94;;;14.47;72.19
61026;BME280;46911;32.650;-16.902;2023-12-20T09:22:03;103273.00;;;14.44;72.45
61026;BME280;46911;32.650;-16.902;2023-12-20T09:24:04;103288.72;;;14.53;72.44
61026;BME280;46911;32.650;-16.902;2023-12-20T09:26:07;103295.56;;;14.60;72.15
61026;BME280;46911;32.650;-16.902;2023-12-20T09:28:08;103292.50;;;14.69;72.12
61026;BME280;46911;32.650;-16.902;2023-12-20T09:30:14;103294.00;;;14.77;71.89
61026;BME280;46911;32.650;-16.902;2023-12-20T09:32:18;103276.88;;;14.79;71.70
61026;BME280;46911;32.650;-16.902;2023-12-20T09:34:20;103285.16;;;14.94;71.60
61026;BME280;46911;32.650;-16.902;2023-12-20T09:36:22;103285.03;;;14.97;71.18
61026;BME280;46911;32.650;-16.902;2023-12-20T09:38:25;103293.78;;;15.21;70.58
61026;BME280;46911;32.650;-16.902;2023-12-20T09:40:32;103288.69;;;15.34;69.89
61026;BME280;46911;32.650;-16.902;2023-12-20T09:42:43;103302.09;;;15.54;69.54
61026;BME280;46911;32.650;-16.902;2023-12-20T09:44:50;103306.13;;;15.63;69.01
61026;BME280;46911;32.650;-16.902;2023-12-20T09:46:52;103301.28;;;15.71;69.29
61026;BME280;46911;32.650;-16.902;2023-12-20T09:48:57;103302.59;;;15.82;69.01
61026;BME280;46911;32.650;-16.902;2023-12-20T09:50:59;103300.09;;;15.96;68.13
61026;BME280;46911;32.650;-16.902;2023-12-20T09:53:02;103287.66;;;16.11;67.64
61026;BME280;46911;32.650;-16.902;2023-12-20T09:55:07;103287.94;;;16.24;67.48
61026;BME280;46911;32.650;-16.902;2023-12-20T09:57:09;103296.75;;;16.45;67.15
61026;BME280;46911;32.650;-16.902;2023-12-20T09:59:11;103296.47;;;16.67;66.72
61026;BME280;46911;32.650;-16.902;2023-12-20T10:01:12;103293.91;;;16.99;65.17
61026;BME280;46911;32.650;-16.902;2023-12-20T10:03:13;103294.22;;;17.11;63.79
61026;BME280;46911;32.650;-16.902;2023-12-20T10:05:28;103290.84;;;17.55;63.72
61026;BME280;46911;32.650;-16.902;2023-12-20T10:07:29;103298.91;;;18.49;61.70
61026;BME280;46911;32.650;-16.902;2023-12-20T10:09:32;103285.25;;;19.39;59.29
61026;BME280;46911;32.650;-16.902;2023-12-20T10:11:38;103299.59;;;21.02;54.35
61026;BME280;46911;32.650;-16.902;2023-12-20T10:13:43;103300.88;;;22.79;49.72
61026;BME280;46911;32.650;-16.902;2023-12-20T10:15:44;103293.50;;;24.35;45.78
61026;BME280;46911;32.650;-16.902;2023-12-20T10:17:48;103298.88;;;25.80;42.47
61026;BME280;46911;32.650;-16.902;2023-12-20T10:19:49;103294.50;;;27.13;39.26
61026;BME280;46911;32.650;-16.902;2023-12-20T10:21:50;103295.59;;;28.12;38.12
61026;BME280;46911;32.650;-16.902;2023-12-20T10:23:55;103303.22;;;28.97;36.50